<?xml version="1.0" encoding="utf-8"?>
<gpx xmlns:xsi="http://www.w3.org/2001/XMLSchema-instance" xmlns:xsd="http://www.w3.org/2001/XMLSchema" version="1.1" creator="Shapelink.com" xmlns="http://www.topografix.com/GPX/1/1" xmlns:gpxtpx="http://www.garmin.com/xmlschemas/TrackPointExtension/v1">
  <metadata>
    <name>Simning 1.90 km, 2016-08-08</name>
    <desc></desc>
    <author><name>Stefan Östlund</name></author> 
    <time>2016-08-08T18:10:52Z</time>
  </metadata>
  <trk>
    <name>Simning 1.90 km, 2016-08-08</name>
    <trkseg>
      <trkpt lat="59.975821611386" lon="15.785774175567">
        <ele>0</ele>
        <time>2016-08-08T18:10:52Z</time>
        <extensions><gpxtpx:TrackPointExtension><gpxtpx:hr>92</gpxtpx:hr></gpxtpx:TrackPointExtension></extensions>
      </trkpt>
      <trkpt lat="59.975886906387" lon="15.785642747375">
        <ele>0</ele>
        <time>2016-08-08T18:11:07Z</time>
      </trkpt>
      <trkpt lat="59.976262666964" lon="15.786032421906">
        <ele>0</ele>
        <time>2016-08-08T18:13:10Z</time>
      </trkpt>
      <trkpt lat="59.976829870137" lon="15.786101488762">
        <ele>0</ele>
        <time>2016-08-08T18:14:16Z</time>
      </trkpt>
      <trkpt lat="59.976864487384" lon="15.786048347516">
        <ele>0</ele>
        <time>2016-08-08T18:14:28Z</time>
      </trkpt>
      <trkpt lat="59.977351643412" lon="15.785741989071">
        <ele>0</ele>
        <time>2016-08-08T18:15:33Z</time>
      </trkpt>
      <trkpt lat="59.977771995697" lon="15.785776354861">
        <ele>0</ele>
        <time>2016-08-08T18:16:41Z</time>
      </trkpt>
      <trkpt lat="59.978185558643" lon="15.78588959433">
        <ele>0</ele>
        <time>2016-08-08T18:17:48Z</time>
      </trkpt>
      <trkpt lat="59.978552602044" lon="15.78677891392">
        <ele>0</ele>
        <time>2016-08-08T18:20:03Z</time>
      </trkpt>
      <trkpt lat="59.978037953384" lon="15.785120806462">
        <ele>0</ele>
        <time>2016-08-08T18:20:48Z</time>
      </trkpt>
      <trkpt lat="59.977910213228" lon="15.784441621105">
        <ele>0</ele>
        <time>2016-08-08T18:21:50Z</time>
      </trkpt>
      <trkpt lat="59.977664875015" lon="15.783800992488">
        <ele>0</ele>
        <time>2016-08-08T18:23:12Z</time>
      </trkpt>
      <trkpt lat="59.97729397594" lon="15.782873619072">
        <ele>0</ele>
        <time>2016-08-08T18:24:58Z</time>
      </trkpt>
      <trkpt lat="59.976874294207" lon="15.782503977282">
        <ele>0</ele>
        <time>2016-08-08T18:26:15Z</time>
      </trkpt>
      <trkpt lat="59.976295188736" lon="15.782614115448">
        <ele>0</ele>
        <time>2016-08-08T18:28:06Z</time>
      </trkpt>
      <trkpt lat="59.975910627164" lon="15.782899016229">
        <ele>0</ele>
        <time>2016-08-08T18:29:25Z</time>
      </trkpt>
      <trkpt lat="59.975722453509" lon="15.783283242525">
        <ele>0</ele>
        <time>2016-08-08T18:30:42Z</time>
      </trkpt>
      <trkpt lat="59.975281733207" lon="15.783480049537">
        <ele>0</ele>
        <time>2016-08-08T18:31:49Z</time>
      </trkpt>
      <trkpt lat="59.976142973432" lon="15.786268372391">
        <ele>0</ele>
        <time>2016-08-08T18:36:29Z</time>
      </trkpt>
      <trkpt lat="59.97620097618" lon="15.786147505393">
        <ele>0</ele>
        <time>2016-08-08T18:36:39Z</time>
      </trkpt>
      <trkpt lat="59.976562319889" lon="15.786210118186">
        <ele>0</ele>
        <time>2016-08-08T18:37:41Z</time>
      </trkpt>
      <trkpt lat="59.977060875301" lon="15.786208777082">
        <ele>0</ele>
        <time>2016-08-08T18:38:52Z</time>
      </trkpt>
      <trkpt lat="59.97736270752" lon="15.785945082508">
        <ele>0</ele>
        <time>2016-08-08T18:39:51Z</time>
      </trkpt>
      <trkpt lat="59.977764284349" lon="15.786098974192">
        <ele>0</ele>
        <time>2016-08-08T18:41:05Z</time>
      </trkpt>
      <trkpt lat="59.978328637676" lon="15.78609662726">
        <ele>0</ele>
        <time>2016-08-08T18:41:59Z</time>
      </trkpt>
      <trkpt lat="59.977926474114" lon="15.785149807836">
        <ele>0</ele>
        <time>2016-08-08T18:44:49Z</time>
      </trkpt>
      <trkpt lat="59.977486843459" lon="15.784731383388">
        <ele>0</ele>
        <time>2016-08-08T18:45:08Z</time>
      </trkpt>
      <trkpt lat="59.977935778023" lon="15.784238946763">
        <ele>0</ele>
        <time>2016-08-08T18:45:38Z</time>
      </trkpt>
      <trkpt lat="59.977624558076" lon="15.783659757473">
        <ele>0</ele>
        <time>2016-08-08T18:46:53Z</time>
      </trkpt>
      <trkpt lat="59.977254329553" lon="15.783060367804">
        <ele>0</ele>
        <time>2016-08-08T18:48:07Z</time>
      </trkpt>
      <trkpt lat="59.976726605129" lon="15.782217735397">
        <ele>0</ele>
        <time>2016-08-08T18:50:09Z</time>
      </trkpt>
      <trkpt lat="59.975178803475" lon="15.783791772398">
        <ele>0</ele>
        <time>2016-08-08T18:55:18Z</time>
      </trkpt>
      <trkpt lat="59.974984343395" lon="15.783750114355">
        <ele>0</ele>
        <time>2016-08-08T18:55:27Z</time>
      </trkpt>
      <trkpt lat="59.974889627925" lon="15.783559342311">
        <ele>0</ele>
        <time>2016-08-08T18:55:41Z</time>
      </trkpt>
      <trkpt lat="59.975428751733" lon="15.784271803811">
        <ele>0</ele>
        <time>2016-08-08T18:57:41Z</time>
      </trkpt>
      <trkpt lat="59.975593456068" lon="15.784904218166">
        <ele>0</ele>
        <time>2016-08-08T18:58:32Z</time>
      </trkpt>
      <trkpt lat="59.975901155617" lon="15.785536297245">
        <ele>0</ele>
        <time>2016-08-08T18:59:35Z</time>
      </trkpt>
      <trkpt lat="59.97563435974" lon="15.785607040481">
        <ele>0</ele>
        <time>2016-08-08T19:00:05Z</time>
        <extensions><gpxtpx:TrackPointExtension><gpxtpx:hr>153</gpxtpx:hr></gpxtpx:TrackPointExtension></extensions>
      </trkpt>
      <trkpt lat="59.9756628582" lon="15.78564568104">
        <ele>0</ele>
        <time>2016-08-08T19:00:06Z</time>
        <extensions><gpxtpx:TrackPointExtension><gpxtpx:hr>149</gpxtpx:hr></gpxtpx:TrackPointExtension></extensions>
      </trkpt>
      <trkpt lat="59.975732008875" lon="15.785720028493">
        <ele>0</ele>
        <time>2016-08-08T19:00:22Z</time>
        <extensions><gpxtpx:TrackPointExtension><gpxtpx:hr>139</gpxtpx:hr></gpxtpx:TrackPointExtension></extensions>
      </trkpt>
      <trkpt lat="59.975725303355" lon="15.785693793146">
        <ele>0</ele>
        <time>2016-08-08T19:00:23Z</time>
        <extensions><gpxtpx:TrackPointExtension><gpxtpx:hr>139</gpxtpx:hr></gpxtpx:TrackPointExtension></extensions>
      </trkpt>
      <trkpt lat="59.975688255357" lon="15.785804266588">
        <ele>0</ele>
        <time>2016-08-08T19:00:27Z</time>
        <extensions><gpxtpx:TrackPointExtension><gpxtpx:hr>137</gpxtpx:hr></gpxtpx:TrackPointExtension></extensions>
      </trkpt>
    </trkseg>
  </trk>
</gpx>